createdAt,value
2019-04-28T00:02:11.739Z,100928.87
2019-04-28T00:04:42.890Z,100927.65
2019-04-28T00:07:14.285Z,100927.53
2019-04-28T00:09:45.331Z,100925.31
2019-04-28T00:12:16.310Z,100927.53
2019-04-28T00:14:47.292Z,100927.02
2019-04-28T00:17:18.138Z,100925.26
2019-04-28T00:19:49.166Z,100926.83
2019-04-28T00:22:27.713Z,100924.54
2019-04-28T00:25:06.534Z,100920.91
2019-04-28T00:27:37.640Z,100920.53
2019-04-28T00:30:11.729Z,100922.15
2019-04-28T00:32:42.924Z,100921.31
2019-04-28T00:35:14.120Z,100927.02
2019-04-28T00:37:45.413Z,100933.52
2019-04-28T00:40:16.505Z,100923.48
2019-04-28T00:42:47.570Z,100924.03
2019-04-28T00:45:18.564Z,100927.70
2019-04-28T00:47:51.037Z,100918.22
2019-04-28T00:50:23.453Z,100918.25
2019-04-28T00:52:56.231Z,100922.45
2019-04-28T00:55:27.125Z,100917.34
2019-04-28T00:57:58.147Z,100921.97
2019-04-28T01:00:34.028Z,100914.11
2019-04-28T01:03:06.248Z,100918.33
2019-04-28T01:05:37.285Z,100919.52
2019-04-28T01:08:08.165Z,100914.96
2019-04-28T01:10:40.898Z,100917.64
2019-04-28T01:13:12.136Z,100911.98
2019-04-28T01:15:53.395Z,100919.05
2019-04-28T01:18:50.198Z,100919.16
2019-04-28T01:21:25.788Z,100919.31
2019-04-28T01:23:57.461Z,100920.66
2019-04-28T01:26:29.987Z,100918.63
2019-04-28T01:29:10.892Z,100921.58
2019-04-28T01:31:52.566Z,100915.14
2019-04-28T01:34:24.444Z,100914.22
2019-04-28T01:36:57.363Z,100913.80
2019-04-28T01:39:29.722Z,100910.55
2019-04-28T01:42:00.944Z,100910.50
2019-04-28T01:44:31.896Z,100914.30
2019-04-28T01:47:02.869Z,100912.50
2019-04-28T01:49:33.833Z,100913.95
2019-04-28T01:52:04.800Z,100916.20
2019-04-28T01:54:35.781Z,100919.92
2019-04-28T01:57:06.725Z,100920.94
2019-04-28T01:59:37.767Z,100920.84
2019-04-28T02:02:10.234Z,100926.86
2019-04-28T02:04:42.438Z,100929.58
2019-04-28T02:07:13.362Z,100931.30
2019-04-28T02:09:44.337Z,100929.19
2019-04-28T02:12:15.262Z,100934.17
2019-04-28T02:14:46.188Z,100941.56
2019-04-28T02:17:17.552Z,100939.61
2019-04-28T02:19:48.577Z,100934.66
2019-04-28T02:22:43.212Z,100939.70
2019-04-28T02:25:14.079Z,100936.34
2019-04-28T02:27:44.996Z,100933.93
2019-04-28T02:30:16.207Z,100940.12
2019-04-28T02:32:47.246Z,100936.56
2019-04-28T02:35:21.156Z,100935.33
2019-04-28T02:37:51.074Z,100941.39
2019-04-28T02:40:22.135Z,100937.84
2019-04-28T02:42:53.197Z,100943.66
2019-04-28T02:45:24.199Z,100942.73
2019-04-28T02:48:01.025Z,100947.98
2019-04-28T02:50:50.867Z,100949.01
2019-04-28T02:53:33.599Z,100951.80
2019-04-28T02:56:06.396Z,100955.20
2019-04-28T02:58:37.228Z,100959.06
2019-04-28T03:01:18.583Z,100962.66
2019-04-28T03:03:41.151Z,100961.78
2019-04-28T03:06:12.182Z,100964.61
2019-04-28T03:08:43.185Z,100964.27
2019-04-28T03:11:14.118Z,100966.84
2019-04-28T03:13:45.189Z,100965.95
2019-04-28T03:16:16.186Z,100975.63
2019-04-28T03:18:47.390Z,100970.47
2019-04-28T03:21:21.173Z,100969.25
2019-04-28T03:23:51.850Z,100971.42
2019-04-28T03:26:33.274Z,100973.22
2019-04-28T03:29:17.361Z,100974.98
2019-04-28T03:32:25.241Z,100970.85
2019-04-28T03:34:53.972Z,100976.89
2019-04-28T03:37:24.213Z,100976.59
2019-04-28T03:39:55.602Z,100977.50
2019-04-28T03:42:26.586Z,100989.32
2019-04-28T03:45:01.050Z,100986.67
2019-04-28T03:47:32.453Z,100991.92
2019-04-28T03:50:03.392Z,100987.41
2019-04-28T03:52:34.283Z,100987.52
2019-04-28T03:55:06.430Z,100997.97
2019-04-28T03:57:37.317Z,100998.23
2019-04-28T04:00:10.945Z,100997.66
2019-04-28T04:02:42.052Z,100998.02
2019-04-28T04:05:13.060Z,101002.84
2019-04-28T04:07:44.033Z,100997.09
2019-04-28T04:10:35.136Z,101001.80
2019-04-28T04:13:33.086Z,100999.97
2019-04-28T04:16:30.815Z,101002.07
2019-04-28T04:19:03.536Z,100996.03
2019-04-28T04:21:34.792Z,100996.03
2019-04-28T04:24:06.405Z,100994.30
2019-04-28T04:26:37.372Z,100999.13
2019-04-28T04:29:10.140Z,100994.53
2019-04-28T04:31:41.451Z,100995.41
2019-04-28T04:34:12.713Z,101002.22
2019-04-28T04:36:43.863Z,101005.89
2019-04-28T04:39:14.982Z,101007.06
2019-04-28T04:41:45.999Z,101008.40
2019-04-28T04:44:17.090Z,101010.44
2019-04-28T04:46:50.737Z,101014.45
2019-04-28T04:49:21.722Z,101017.81
2019-04-28T04:51:52.878Z,101017.59
2019-04-28T04:54:23.868Z,101022.42
2019-04-28T04:56:54.967Z,101022.39
2019-04-28T04:59:25.964Z,101031.91
2019-04-28T05:02:26.579Z,101025.48
2019-04-28T05:05:01.986Z,101031.45
2019-04-28T05:07:33.316Z,101033.34
2019-04-28T05:10:05.029Z,101027.89
2019-04-28T05:12:36.492Z,101033.24
2019-04-28T05:15:07.724Z,101033.52
2019-04-28T05:17:40.180Z,101032.78
2019-04-28T05:20:11.442Z,101036.30
2019-04-28T05:22:50.539Z,101034.72
2019-04-28T05:25:30.923Z,101038.52
2019-04-28T05:28:02.946Z,101039.78
2019-04-28T05:30:34.934Z,101047.73
2019-04-28T05:33:06.628Z,101042.45
2019-04-28T05:35:39.615Z,101047.13
2019-04-28T05:38:10.375Z,101052.34
2019-04-28T05:40:41.385Z,101048.78
2019-04-28T05:43:12.382Z,101052.80
2019-04-28T05:45:43.429Z,101057.97
2019-04-28T05:48:16.110Z,101053.22
2019-04-28T05:51:07.293Z,101051.89
2019-04-28T05:53:46.533Z,101056.63
2019-04-28T05:56:34.972Z,101062.38
2019-04-28T05:59:17.043Z,101064.83
2019-04-28T06:02:08.206Z,101065.44
2019-04-28T06:04:40.533Z,101062.30
2019-04-28T06:07:35.649Z,101064.68
2019-04-28T06:10:07.569Z,101067.25
2019-04-28T06:12:40.538Z,101064.68
2019-04-28T06:15:12.225Z,101070.80
2019-04-28T06:17:43.301Z,101066.63
2019-04-28T06:20:14.275Z,101063.92
2019-04-28T06:22:45.573Z,101071.37
2019-04-28T06:25:16.601Z,101068.86
2019-04-28T06:27:47.526Z,101073.25
2019-04-28T06:30:18.505Z,101074.71
2019-04-28T06:32:49.352Z,101077.16
2019-04-28T06:35:20.444Z,101085.13
2019-04-28T06:37:51.456Z,101077.89
2019-04-28T06:40:22.334Z,101086.05
2019-04-28T06:42:54.362Z,101082.91
2019-04-28T06:45:25.372Z,101086.92
2019-04-28T06:47:56.416Z,101093.31
2019-04-28T06:50:27.414Z,101092.78
2019-04-28T06:52:58.480Z,101095.12
2019-04-28T06:55:29.387Z,101100.48
2019-04-28T06:58:00.396Z,101099.48
2019-04-28T07:00:31.411Z,101094.92
2019-04-28T07:03:02.404Z,101098.98
2019-04-28T07:05:33.522Z,101104.22
2019-04-28T07:08:05.138Z,101107.63
2019-04-28T07:10:36.348Z,101106.73
2019-04-28T07:13:07.303Z,101114.05
2019-04-28T07:15:42.144Z,101110.08
2019-04-28T07:18:13.271Z,101115.86
2019-04-28T07:21:25.741Z,101117.12
2019-04-28T07:23:56.705Z,101119.16
2019-04-28T07:26:41.842Z,101118.66
2019-04-28T07:29:13.365Z,101115.23
2019-04-28T07:31:49.774Z,101124.63
2019-04-28T07:34:23.030Z,101122.40
2019-04-28T07:37:00.065Z,101130.66
2019-04-28T07:39:37.201Z,101125.79
2019-04-28T07:42:07.983Z,101127.94
2019-04-28T07:44:47.600Z,101125.50
2019-04-28T07:47:20.926Z,101125.84
2019-04-28T07:49:51.999Z,101134.02
2019-04-28T07:52:38.536Z,101138.30
2019-04-28T07:55:09.553Z,101143.03
2019-04-28T07:57:40.991Z,101147.40
2019-04-28T08:00:14.576Z,101140.33
2019-04-28T08:02:45.655Z,101143.39
2019-04-28T08:05:16.574Z,101139.98
2019-04-28T08:07:47.673Z,101138.53
2019-04-28T08:10:21.827Z,101138.87
2019-04-28T08:12:52.821Z,101147.80
2019-04-28T08:15:23.847Z,101150.95
2019-04-28T08:17:54.889Z,101147.49
2019-04-28T08:20:25.710Z,101147.33
2019-04-28T08:22:57.273Z,101150.39
2019-04-28T08:25:28.208Z,101149.33
2019-04-28T08:27:59.220Z,101153.83
2019-04-28T08:30:30.353Z,101153.41
2019-04-28T08:33:29.420Z,101159.38
2019-04-28T08:36:03.394Z,101156.51
2019-04-28T08:38:34.556Z,101160.59
2019-04-28T08:41:06.388Z,101162.59
2019-04-28T08:43:49.300Z,101164.39
2019-04-28T08:46:19.365Z,101164.63
2019-04-28T08:48:53.846Z,101174.66
2019-04-28T08:51:27.484Z,101176.78
2019-04-28T08:53:58.531Z,101171.78
2019-04-28T08:56:30.978Z,101178.69
2019-04-28T08:59:04.863Z,101180.44
2019-04-28T09:01:34.963Z,101179.79
2019-04-28T09:04:15.249Z,101181.47
2019-04-28T09:06:41.026Z,101183.78
2019-04-28T09:09:16.626Z,101182.69
2019-04-28T09:11:48.145Z,101176.45
2019-04-28T09:14:19.286Z,101180.89
2019-04-28T09:16:50.388Z,101179.51
2019-04-28T09:19:21.464Z,101181.78
2019-04-28T09:21:52.608Z,101182.86
2019-04-28T09:24:23.656Z,101192.74
2019-04-28T09:26:54.800Z,101196.81
2019-04-28T09:29:25.973Z,101191.75
2019-04-28T09:31:57.055Z,101190.60
2019-04-28T09:34:39.951Z,101199.83
2019-04-28T09:37:12.271Z,101198.48
2019-04-28T09:39:48.008Z,101194.78
2019-04-28T09:42:41.725Z,101194.00
2019-04-28T09:45:19.535Z,101193.13
2019-04-28T09:47:53.905Z,101192.48
2019-04-28T09:50:26.034Z,101194.10
2019-04-28T09:52:57.182Z,101192.70
2019-04-28T09:55:33.358Z,101194.69
2019-04-28T09:58:04.370Z,101186.81
2019-04-28T10:00:37.084Z,101181.16
2019-04-28T10:03:08.098Z,101186.09
2019-04-28T10:05:39.003Z,101191.28
2019-04-28T10:08:13.481Z,101184.66
2019-04-28T10:10:45.894Z,101183.02
2019-04-28T10:13:20.343Z,101181.31
2019-04-28T10:15:54.355Z,101183.38
2019-04-28T10:18:25.358Z,101181.70
2019-04-28T10:20:56.418Z,101177.83
2019-04-28T10:23:30.095Z,101176.97
2019-04-28T10:26:02.380Z,101176.01
2019-04-28T10:28:34.689Z,101174.78
2019-04-28T10:31:21.529Z,101182.78
2019-04-28T10:33:58.950Z,101180.23
2019-04-28T10:36:38.358Z,101182.81
2019-04-28T10:39:28.045Z,101188.14
2019-04-28T10:41:59.294Z,101176.08
2019-04-28T10:44:32.092Z,101174.44
2019-04-28T10:47:04.639Z,101167.11
2019-04-28T10:49:38.267Z,101162.14
2019-04-28T10:52:11.963Z,101164.55
2019-04-28T10:55:15.892Z,101161.35
2019-04-28T10:57:53.146Z,101161.80
2019-04-28T11:00:29.684Z,101163.44
2019-04-28T11:03:01.255Z,101151.52
2019-04-28T11:05:57.495Z,101160.13
2019-04-28T11:08:43.818Z,101154.19
2019-04-28T11:11:28.857Z,101155.61
2019-04-28T11:14:08.156Z,101153.55
2019-04-28T11:16:49.625Z,101154.37
2019-04-28T11:19:36.852Z,101159.27
2019-04-28T11:22:10.222Z,101160.55
2019-04-28T11:24:41.744Z,101162.73
2019-04-28T11:27:25.767Z,101163.48
2019-04-28T11:29:57.127Z,101163.48
2019-04-28T11:32:30.542Z,101164.78
2019-04-28T11:35:21.700Z,101162.73
2019-04-28T11:37:48.144Z,101167.89
2019-04-28T11:40:22.012Z,101169.27
2019-04-28T11:42:53.868Z,101170.74
2019-04-28T11:45:35.681Z,101174.58
2019-04-28T11:48:09.924Z,101178.19
2019-04-28T11:50:48.874Z,101176.47
2019-04-28T11:53:31.943Z,101176.78
2019-04-28T11:56:10.580Z,101178.45
2019-04-28T11:58:41.410Z,101178.64
2019-04-28T12:01:17.554Z,101189.50
2019-04-28T12:03:51.800Z,101193.47
2019-04-28T12:06:22.791Z,101203.31
2019-04-28T12:08:55.867Z,101205.47
2019-04-28T12:11:33.822Z,101211.62
2019-04-28T12:14:17.672Z,101221.67
2019-04-28T12:17:35.118Z,101208.12
2019-04-28T12:20:27.015Z,101224.37
2019-04-28T12:23:00.622Z,101218.66
2019-04-28T12:25:34.967Z,101225.50
2019-04-28T12:28:13.354Z,101224.71
2019-04-28T12:30:44.530Z,101230.67
2019-04-28T12:33:22.696Z,101233.39
2019-04-28T12:35:57.446Z,101231.77
2019-04-28T12:38:30.951Z,101224.30
2019-04-28T12:41:02.015Z,101232.52
2019-04-28T12:43:33.067Z,101234.42
2019-04-28T12:46:09.165Z,101235.11
2019-04-28T12:48:40.300Z,101239.33
2019-04-28T12:51:11.289Z,101244.78
2019-04-28T12:53:42.241Z,101241.88
2019-04-28T12:56:15.042Z,101242.75
2019-04-28T12:58:47.954Z,101240.98
2019-04-28T13:01:33.672Z,101244.47
2019-04-28T13:04:29.557Z,101240.89
2019-04-28T13:07:19.545Z,101244.94
2019-04-28T13:09:50.571Z,101248.09
2019-04-28T13:12:21.654Z,101253.77
2019-04-28T13:14:52.587Z,101248.39
2019-04-28T13:17:23.521Z,101254.13
2019-04-28T13:19:54.512Z,101254.57
2019-04-28T13:22:25.765Z,101256.66
2019-04-28T13:24:57.181Z,101258.77
2019-04-28T13:27:31.428Z,101261.51
2019-04-28T13:30:04.768Z,101268.98
2019-04-28T13:32:35.783Z,101269.00
2019-04-28T13:35:09.096Z,101260.22
2019-04-28T13:37:40.357Z,101256.45
2019-04-28T13:40:16.673Z,101256.52
2019-04-28T13:42:47.670Z,101256.95
2019-04-28T13:45:21.285Z,101257.72
2019-04-28T13:47:52.210Z,101259.97
2019-04-28T13:50:34.671Z,101264.63
2019-04-28T13:53:06.762Z,101271.11
2019-04-28T13:56:05.944Z,101263.17
2019-04-28T13:58:54.794Z,101266.69
2019-04-28T14:01:56.965Z,101268.00
2019-04-28T14:04:43.915Z,101262.73
2019-04-28T14:07:14.920Z,101265.08
2019-04-28T14:09:45.895Z,101264.16
2019-04-28T14:12:16.740Z,101262.00
2019-04-28T14:14:57.391Z,101263.53
2019-04-28T14:17:44.053Z,101260.61
2019-04-28T14:20:15.236Z,101259.08
2019-04-28T14:23:01.659Z,101267.42
2019-04-28T14:25:40.703Z,101266.12
2019-04-28T14:28:11.775Z,101267.77
2019-04-28T14:30:45.749Z,101270.01
2019-04-28T14:33:16.962Z,101263.92
2019-04-28T14:35:48.032Z,101271.98
2019-04-28T14:38:19.080Z,101277.66
2019-04-28T14:40:54.434Z,101275.91
2019-04-28T14:43:55.762Z,101266.30
2019-04-28T14:46:26.777Z,101276.92
2019-04-28T14:48:57.704Z,101273.02
2019-04-28T14:51:28.788Z,101274.52
2019-04-28T14:53:59.666Z,101278.23
2019-04-28T14:56:30.911Z,101277.84
2019-04-28T14:59:04.285Z,101282.45
2019-04-28T15:01:57.468Z,101281.98
2019-04-28T15:04:47.405Z,101277.70
2019-04-28T15:07:37.373Z,101287.09
2019-04-28T15:10:16.522Z,101285.70
2019-04-28T15:12:47.590Z,101280.16
2019-04-28T15:15:20.163Z,101280.41
2019-04-28T15:17:51.297Z,101277.14
2019-04-28T15:20:22.311Z,101273.63
2019-04-28T15:22:53.237Z,101274.22
2019-04-28T15:25:24.101Z,101273.51
2019-04-28T15:27:55.100Z,101270.91
2019-04-28T15:30:26.125Z,101274.31
2019-04-28T15:32:57.050Z,101271.61
2019-04-28T15:35:27.978Z,101275.25
2019-04-28T15:37:58.967Z,101272.48
2019-04-28T15:40:29.895Z,101270.09
2019-04-28T15:43:00.882Z,101268.73
2019-04-28T15:45:32.015Z,101273.19
2019-04-28T15:48:02.983Z,101270.56
2019-04-28T15:50:34.213Z,101274.45
2019-04-28T15:53:06.657Z,101275.09
2019-04-28T15:55:44.314Z,101274.86
2019-04-28T15:58:32.324Z,101278.16
2019-04-28T16:01:03.528Z,101284.05
2019-04-28T16:03:35.764Z,101284.81
2019-04-28T16:06:07.063Z,101286.46
2019-04-28T16:08:38.397Z,101284.58
2019-04-28T16:11:09.355Z,101285.11
2019-04-28T16:13:40.383Z,101287.05
2019-04-28T16:16:11.388Z,101285.69
2019-04-28T16:18:42.383Z,101288.80
2019-04-28T16:21:13.400Z,101290.82
2019-04-28T16:23:44.328Z,101291.66
2019-04-28T16:26:15.366Z,101293.11
2019-04-28T16:28:46.334Z,101292.22
2019-04-28T16:31:17.294Z,101293.53
2019-04-28T16:33:48.573Z,101294.13
2019-04-28T16:36:19.530Z,101305.41
2019-04-28T16:38:50.575Z,101305.91
2019-04-28T16:41:31.981Z,101305.94
2019-04-28T16:44:13.724Z,101309.36
2019-04-28T16:46:44.773Z,101317.90
2019-04-28T16:49:15.757Z,101311.87
2019-04-28T16:51:46.712Z,101319.75
2019-04-28T16:54:18.541Z,101327.01
2019-04-28T16:56:59.301Z,101317.02
2019-04-28T16:59:43.542Z,101323.52
2019-04-28T17:02:23.307Z,101322.32
2019-04-28T17:04:54.582Z,101328.45
2019-04-28T17:07:25.479Z,101333.20
2019-04-28T17:09:56.403Z,101335.80
2019-04-28T17:12:27.425Z,101340.70
2019-04-28T17:14:58.346Z,101345.06
2019-04-28T17:17:29.305Z,101349.75
2019-04-28T17:20:00.540Z,101348.17
2019-04-28T17:22:31.434Z,101340.96
2019-04-28T17:25:02.226Z,101344.89
2019-04-28T17:27:33.373Z,101345.81
2019-04-28T17:30:04.854Z,101342.48
2019-04-28T17:32:35.822Z,101351.21
2019-04-28T17:35:07.102Z,101351.13
2019-04-28T17:37:39.482Z,101349.23
2019-04-28T17:40:12.628Z,101349.14
2019-04-28T17:42:43.463Z,101351.96
2019-04-28T17:45:14.381Z,101354.34
2019-04-28T17:47:46.135Z,101355.09
2019-04-28T17:50:19.215Z,101354.43
2019-04-28T17:52:50.173Z,101359.42
2019-04-28T17:55:21.023Z,101367.61
2019-04-28T17:57:52.056Z,101369.02
2019-04-28T18:00:35.061Z,101378.41
2019-04-28T18:03:14.740Z,101378.94
2019-04-28T18:05:51.599Z,101375.41
2019-04-28T18:08:22.851Z,101384.54
2019-04-28T18:10:53.935Z,101391.34
2019-04-28T18:13:24.899Z,101399.13
2019-04-28T18:16:10.132Z,101403.28
2019-04-28T18:18:44.778Z,101405.98
2019-04-28T18:21:15.801Z,101416.98
2019-04-28T18:23:46.778Z,101420.41
2019-04-28T18:26:17.790Z,101418.80
2019-04-28T18:28:48.799Z,101416.25
2019-04-28T18:31:41.600Z,101421.69
2019-04-28T18:34:29.718Z,101423.96
2019-04-28T18:37:17.681Z,101429.91
2019-04-28T18:40:16.298Z,101433.44
2019-04-28T18:42:54.856Z,101436.02
2019-04-28T18:45:25.787Z,101448.48
2019-04-28T18:47:57.615Z,101453.18
2019-04-28T18:50:28.682Z,101454.95
2019-04-28T18:52:59.765Z,101459.32
2019-04-28T18:55:30.809Z,101468.38
2019-04-28T18:58:01.913Z,101468.70
2019-04-28T19:00:35.155Z,101464.89
2019-04-28T19:03:08.103Z,101470.09
2019-04-28T19:05:42.591Z,101471.80
2019-04-28T19:08:49.004Z,101476.53
2019-04-28T19:11:35.945Z,101486.13
2019-04-28T19:14:20.687Z,101493.45
2019-04-28T19:17:19.348Z,101493.63
2019-04-28T19:19:53.562Z,101496.95
2019-04-28T19:22:24.668Z,101500.45
2019-04-28T19:24:55.669Z,101503.70
2019-04-28T19:27:26.575Z,101510.14
2019-04-28T19:29:57.890Z,101522.88
2019-04-28T19:32:30.927Z,101517.78
2019-04-28T19:35:01.911Z,101526.90
2019-04-28T19:37:34.416Z,101525.22
2019-04-28T19:40:06.923Z,101525.05
2019-04-28T19:42:37.860Z,101530.17
2019-04-28T19:45:13.886Z,101534.25
2019-04-28T19:47:45.414Z,101536.06
2019-04-28T19:50:22.675Z,101539.48
2019-04-28T19:52:56.578Z,101543.21
2019-04-28T19:55:31.647Z,101549.74
2019-04-28T19:58:18.893Z,101556.80
2019-04-28T20:00:53.735Z,101561.94
2019-04-28T20:03:24.696Z,101555.87
2019-04-28T20:05:55.881Z,101563.41
2019-04-28T20:08:26.949Z,101556.84
2019-04-28T20:10:57.988Z,101559.84
2019-04-28T20:13:31.386Z,101562.06
2019-04-28T20:16:01.857Z,101569.02
2019-04-28T20:18:32.947Z,101570.80
2019-04-28T20:21:03.911Z,101570.87
2019-04-28T20:23:34.793Z,101571.39
2019-04-28T20:26:06.389Z,101572.73
2019-04-28T20:28:37.351Z,101567.30
2019-04-28T20:31:10.616Z,101577.22
2019-04-28T20:33:44.942Z,101584.42
2019-04-28T20:36:57.881Z,101581.87
2019-04-28T20:39:30.949Z,101587.39
2019-04-28T20:42:19.680Z,101575.58
2019-04-28T20:44:52.056Z,101583.45
2019-04-28T20:48:02.599Z,101580.53
2019-04-28T20:50:27.391Z,101584.58
2019-04-28T20:52:58.467Z,101579.64
2019-04-28T20:55:29.568Z,101580.50
2019-04-28T20:58:10.763Z,101590.38
2019-04-28T21:00:41.742Z,101582.45
2019-04-28T21:03:14.020Z,101587.17
2019-04-28T21:05:51.554Z,101596.22
2019-04-28T21:08:22.888Z,101590.92
2019-04-28T21:10:54.824Z,101600.91
2019-04-28T21:13:26.151Z,101605.99
2019-04-28T21:15:57.195Z,101607.07
2019-04-28T21:18:28.052Z,101606.39
2019-04-28T21:20:59.025Z,101606.92
2019-04-28T21:23:30.013Z,101608.72
2019-04-28T21:26:00.940Z,101610.57
2019-04-28T21:28:31.882Z,101616.20
2019-04-28T21:31:03.242Z,101612.27
2019-04-28T21:33:34.307Z,101616.95
2019-04-28T21:36:05.320Z,101618.72
2019-04-28T21:38:36.284Z,101617.46
2019-04-28T21:41:07.348Z,101619.73
2019-04-28T21:44:09.375Z,101626.05
2019-04-28T21:46:47.162Z,101629.64
2019-04-28T21:49:22.304Z,101626.52
2019-04-28T21:51:53.233Z,101625.30
2019-04-28T21:54:24.232Z,101629.06
2019-04-28T21:56:55.219Z,101628.75
2019-04-28T21:59:26.182Z,101624.48
2019-04-28T22:01:57.207Z,101627.16
2019-04-28T22:04:28.696Z,101628.85
2019-04-28T22:06:59.740Z,101628.83
2019-04-28T22:09:30.866Z,101632.49
2019-04-28T22:12:01.863Z,101637.61
2019-04-28T22:14:32.923Z,101643.98
2019-04-28T22:17:04.429Z,101643.27
2019-04-28T22:19:35.533Z,101646.34
2019-04-28T22:22:06.594Z,101645.89
2019-04-28T22:24:42.659Z,101655.00
2019-04-28T22:27:15.660Z,101652.91
2019-04-28T22:29:46.441Z,101655.69
2019-04-28T22:32:17.498Z,101658.32
2019-04-28T22:34:49.159Z,101656.64
2019-04-28T22:37:20.788Z,101662.91
2019-04-28T22:39:52.019Z,101658.88
2019-04-28T22:42:24.133Z,101665.15
2019-04-28T22:44:55.004Z,101669.68
2019-04-28T22:47:25.905Z,101665.28
2019-04-28T22:49:57.152Z,101668.42
2019-04-28T22:52:28.246Z,101671.22
2019-04-28T22:55:18.203Z,101680.27
2019-04-28T22:58:06.953Z,101682.65
2019-04-28T23:00:51.845Z,101678.23
2019-04-28T23:03:39.327Z,101676.06
2019-04-28T23:06:10.743Z,101677.92
2019-04-28T23:08:41.649Z,101676.61
2019-04-28T23:11:12.564Z,101678.91
2019-04-28T23:13:43.611Z,101676.31
2019-04-28T23:16:14.743Z,101681.27
2019-04-28T23:18:45.922Z,101681.28
2019-04-28T23:21:35.840Z,101692.88
2019-04-28T23:24:07.049Z,101695.63
2019-04-28T23:26:37.959Z,101698.42
2019-04-28T23:29:09.114Z,101695.84
2019-04-28T23:31:40.121Z,101700.51
2019-04-28T23:34:11.228Z,101707.25
2019-04-28T23:36:42.457Z,101705.01
2019-04-28T23:39:13.532Z,101708.14
2019-04-28T23:41:54.214Z,101700.06
2019-04-28T23:44:28.007Z,101704.50
2019-04-28T23:46:59.541Z,101704.52
2019-04-28T23:49:31.068Z,101706.73
2019-04-28T23:52:18.057Z,101704.19
2019-04-28T23:54:51.312Z,101710.98
2019-04-28T23:57:22.138Z,101712.28
2019-04-28T23:59:53.420Z,101718.05
